createdAt,value
2023-04-07T00:01:44.750Z,11.75
2023-04-07T00:03:53.152Z,11.30
2023-04-07T00:08:03.559Z,8.90
2023-04-07T00:10:10.576Z,11.40
2023-04-07T00:12:15.654Z,12.80
2023-04-07T00:14:20.721Z,11.13
2023-04-07T00:16:25.937Z,9.65
2023-04-07T00:18:31.187Z,10.13
2023-04-07T00:20:38.855Z,12.93
2023-04-07T00:22:44.341Z,13.40
2023-04-07T00:24:49.445Z,12.10
2023-04-07T00:26:54.489Z,14.05
2023-04-07T00:28:59.673Z,10.48
2023-04-07T00:31:04.977Z,11.98
2023-04-07T00:33:10.284Z,12.35
2023-04-07T00:35:15.934Z,10.15
2023-04-07T00:37:24.113Z,11.25
2023-04-07T00:39:30.360Z,12.75
2023-04-07T00:41:37.594Z,11.95
2023-04-07T00:43:43.384Z,12.30
2023-04-07T00:45:48.593Z,12.35
2023-04-07T00:47:53.949Z,12.93
2023-04-07T00:49:59.292Z,12.70
2023-04-07T00:52:04.719Z,11.07
2023-04-07T00:54:13.174Z,10.95
2023-04-07T00:56:18.475Z,7.95
2023-04-07T00:58:23.747Z,9.63
2023-04-07T01:00:30.252Z,10.82
2023-04-07T01:02:44.465Z,7.57
2023-04-07T01:04:57.636Z,5.55
2023-04-07T01:07:09.537Z,6.88
2023-04-07T01:09:30.519Z,7.90
2023-04-07T01:11:45.500Z,6.07
2023-04-07T01:13:57.325Z,5.68
2023-04-07T01:16:16.347Z,5.88
2023-04-07T01:18:34.809Z,9.68
2023-04-07T01:20:41.561Z,6.35
2023-04-07T01:22:53.135Z,7.30
2023-04-07T01:25:34.654Z,6.90
2023-04-07T01:27:46.837Z,8.82
2023-04-07T01:29:56.571Z,8.45
2023-04-07T01:32:06.382Z,7.95
2023-04-07T01:34:14.621Z,6.28
2023-04-07T01:36:21.657Z,7.20
2023-04-07T01:38:29.560Z,8.37
2023-04-07T01:40:37.830Z,7.90
2023-04-07T01:42:44.403Z,8.57
2023-04-07T01:44:51.257Z,8.18
2023-04-07T01:47:00.139Z,9.95
2023-04-07T01:49:06.931Z,8.95
2023-04-07T01:51:17.681Z,9.15
2023-04-07T01:53:23.338Z,9.20
2023-04-07T01:55:28.873Z,9.25
2023-04-07T01:57:40.866Z,13.00
2023-04-07T01:59:52.765Z,12.02
2023-04-07T02:02:03.850Z,11.15
2023-04-07T02:04:17.804Z,9.70
2023-04-07T02:06:27.784Z,12.45
2023-04-07T02:08:38.615Z,13.20
2023-04-07T02:10:44.645Z,10.27
2023-04-07T02:12:51.224Z,10.02
2023-04-07T02:14:59.086Z,11.00
2023-04-07T02:17:07.736Z,10.35
2023-04-07T02:19:13.252Z,10.43
2023-04-07T02:21:19.686Z,11.23
2023-04-07T02:23:25.346Z,13.43
2023-04-07T02:25:32.520Z,11.20
2023-04-07T02:27:37.694Z,11.48
2023-04-07T02:29:42.851Z,10.27
2023-04-07T02:31:47.962Z,10.60
2023-04-07T02:33:56.479Z,13.25
2023-04-07T02:36:01.840Z,13.60
2023-04-07T02:38:06.950Z,10.00
2023-04-07T02:40:14.997Z,8.68
2023-04-07T02:42:20.171Z,9.10
2023-04-07T02:44:27.533Z,10.52
2023-04-07T02:46:32.730Z,12.00
2023-04-07T02:48:37.875Z,11.70
2023-04-07T02:50:45.738Z,9.98
2023-04-07T02:54:56.769Z,12.15
2023-04-07T02:57:04.937Z,9.63
2023-04-07T02:59:10.117Z,11.10
2023-04-07T03:01:19.989Z,9.52
2023-04-07T03:03:25.401Z,10.85
2023-04-07T03:05:59.275Z,12.20
2023-04-07T03:08:04.830Z,12.30
2023-04-07T03:10:11.753Z,10.95
2023-04-07T03:12:17.280Z,12.10
2023-04-07T03:14:22.687Z,10.25
2023-04-07T03:16:28.863Z,10.23
2023-04-07T03:18:40.589Z,9.98
2023-04-07T03:20:48.025Z,9.73
2023-04-07T03:22:57.423Z,10.20
2023-04-07T03:25:07.213Z,10.25
2023-04-07T03:27:12.814Z,10.57
2023-04-07T03:29:22.772Z,9.85
2023-04-07T03:31:28.822Z,9.65
2023-04-07T03:33:33.906Z,13.25
2023-04-07T03:35:39.223Z,8.82
2023-04-07T03:37:44.959Z,11.40
2023-04-07T03:39:56.952Z,10.23
2023-04-07T03:42:05.138Z,11.30
2023-04-07T03:44:12.374Z,12.80
2023-04-07T03:46:19.200Z,10.48
2023-04-07T03:48:24.448Z,10.25
2023-04-07T03:50:40.738Z,9.85
2023-04-07T03:52:51.884Z,11.60
2023-04-07T03:55:10.258Z,11.00
2023-04-07T03:57:15.687Z,11.85
2023-04-07T03:59:24.791Z,10.35
2023-04-07T04:01:40.687Z,12.63
2023-04-07T04:03:52.422Z,12.93
2023-04-07T04:06:06.017Z,11.60
2023-04-07T04:08:11.161Z,10.93
2023-04-07T04:10:21.300Z,11.93
2023-04-07T04:12:29.102Z,10.27
2023-04-07T04:14:42.755Z,11.77
2023-04-07T04:16:50.203Z,10.88
2023-04-07T04:19:15.733Z,9.45
2023-04-07T04:21:21.879Z,10.15
2023-04-07T04:23:27.018Z,9.30
2023-04-07T04:25:36.396Z,9.25
2023-04-07T04:27:45.243Z,10.95
2023-04-07T04:29:56.712Z,14.02
2023-04-07T04:32:12.699Z,10.40
2023-04-07T04:34:21.602Z,12.48
2023-04-07T04:36:28.323Z,12.05
2023-04-07T04:38:37.959Z,12.80
2023-04-07T04:40:56.259Z,12.30
2023-04-07T04:43:07.623Z,11.18
2023-04-07T04:45:15.239Z,9.93
2023-04-07T04:47:24.911Z,10.13
2023-04-07T04:49:30.138Z,12.55
2023-04-07T04:53:51.468Z,9.77
2023-04-07T04:55:59.799Z,11.63
2023-04-07T04:58:18.259Z,11.40
2023-04-07T05:00:26.725Z,12.88
2023-04-07T05:02:39.371Z,12.85
2023-04-07T05:04:46.378Z,11.35
2023-04-07T05:07:03.429Z,11.00
2023-04-07T05:09:13.462Z,14.45
2023-04-07T05:11:24.836Z,11.48
2023-04-07T05:13:33.153Z,10.20
2023-04-07T05:15:40.569Z,10.77
2023-04-07T05:17:50.805Z,12.80
2023-04-07T05:20:01.859Z,11.95
2023-04-07T05:22:18.840Z,12.23
2023-04-07T05:24:28.304Z,11.85
2023-04-07T05:26:39.421Z,10.68
2023-04-07T05:30:55.531Z,12.40
2023-04-07T05:33:05.634Z,11.13
2023-04-07T05:35:20.775Z,11.32
2023-04-07T05:37:31.510Z,12.77
2023-04-07T05:39:41.684Z,14.07
2023-04-07T05:41:52.929Z,12.13
2023-04-07T05:44:02.403Z,13.73
2023-04-07T05:46:11.548Z,12.38
2023-04-07T05:48:25.693Z,13.68
2023-04-07T05:50:32.281Z,12.98
2023-04-07T05:52:40.076Z,13.45
2023-04-07T05:54:56.612Z,15.35
2023-04-07T05:57:10.755Z,19.90
2023-04-07T05:59:21.530Z,17.67
2023-04-07T06:01:28.060Z,19.58
2023-04-07T06:03:33.660Z,19.25
2023-04-07T06:05:49.226Z,17.02
2023-04-07T06:07:57.269Z,22.58
2023-04-07T06:10:05.297Z,18.00
2023-04-07T06:12:13.557Z,20.00
2023-04-07T06:14:20.920Z,19.67
2023-04-07T06:16:26.223Z,21.40
2023-04-07T06:18:31.333Z,21.42
2023-04-07T06:20:37.167Z,20.73
2023-04-07T06:22:42.334Z,21.92
2023-04-07T06:24:47.499Z,23.88
2023-04-07T06:26:52.628Z,18.17
2023-04-07T06:29:02.432Z,22.65
2023-04-07T06:31:07.905Z,22.13
2023-04-07T06:33:14.280Z,21.27
2023-04-07T06:35:19.961Z,26.20
2023-04-07T06:37:25.284Z,19.85
2023-04-07T06:39:31.012Z,23.67
2023-04-07T06:41:36.840Z,23.15
2023-04-07T06:43:42.024Z,22.67
2023-04-07T06:45:49.693Z,25.83
2023-04-07T06:47:54.929Z,22.85
2023-04-07T06:50:00.039Z,25.30
2023-04-07T06:52:05.150Z,24.52
2023-04-07T06:54:13.033Z,25.38
2023-04-07T06:56:18.400Z,24.90
2023-04-07T06:58:23.487Z,25.73
2023-04-07T07:00:31.780Z,22.98
2023-04-07T07:02:39.633Z,31.08
2023-04-07T07:04:44.932Z,22.20
2023-04-07T07:06:50.233Z,22.83
2023-04-07T07:08:55.391Z,23.15
2023-04-07T07:11:00.836Z,21.50
2023-04-07T07:13:05.885Z,22.02
2023-04-07T07:15:12.299Z,24.88
2023-04-07T07:17:17.485Z,21.02
2023-04-07T07:19:25.247Z,22.05
2023-04-07T07:21:31.627Z,24.25
2023-04-07T07:23:36.855Z,20.00
2023-04-07T07:25:42.243Z,21.60
2023-04-07T07:27:47.385Z,21.33
2023-04-07T07:29:52.526Z,19.80
2023-04-07T07:31:57.668Z,19.58
2023-04-07T07:34:03.060Z,17.95
2023-04-07T07:36:11.562Z,20.77
2023-04-07T07:38:16.706Z,18.60
2023-04-07T07:40:22.206Z,18.60
2023-04-07T07:42:27.300Z,18.83
2023-04-07T07:44:32.686Z,18.90
2023-04-07T07:46:37.922Z,18.77
2023-04-07T07:48:43.052Z,19.10
2023-04-07T07:50:49.283Z,17.75
2023-04-07T07:52:56.922Z,18.33
2023-04-07T07:55:02.039Z,19.17
2023-04-07T07:57:07.173Z,17.92
2023-04-07T07:59:13.053Z,18.52
2023-04-07T08:01:18.365Z,19.30
2023-04-07T08:03:23.506Z,19.58
2023-04-07T08:05:28.830Z,18.65
2023-04-07T08:07:33.959Z,16.92
2023-04-07T08:09:41.818Z,18.30
2023-04-07T08:11:48.528Z,18.95
2023-04-07T08:13:54.153Z,19.65
2023-04-07T08:15:59.504Z,16.85
2023-04-07T08:18:06.514Z,17.75
2023-04-07T08:20:13.914Z,19.88
2023-04-07T08:22:20.027Z,18.95
2023-04-07T08:24:25.165Z,17.33
2023-04-07T08:26:33.012Z,19.60
2023-04-07T08:28:38.289Z,17.52
2023-04-07T08:30:43.378Z,17.80
2023-04-07T08:32:49.086Z,15.80
2023-04-07T08:34:54.148Z,16.42
2023-04-07T08:36:59.435Z,17.08
2023-04-07T08:39:05.883Z,16.17
2023-04-07T08:41:15.389Z,18.83
2023-04-07T08:43:24.719Z,17.23
2023-04-07T08:45:32.944Z,18.63
2023-04-07T08:47:40.033Z,19.80
2023-04-07T08:49:47.747Z,16.95
2023-04-07T08:51:55.822Z,20.25
2023-04-07T08:54:08.694Z,17.17
2023-04-07T08:56:15.669Z,19.10
2023-04-07T08:58:23.905Z,17.80
2023-04-07T09:00:29.439Z,19.10
2023-04-07T09:02:36.273Z,20.60
2023-04-07T09:04:42.499Z,18.13
2023-04-07T09:06:47.555Z,21.17
2023-04-07T09:08:52.677Z,18.45
2023-04-07T09:10:59.541Z,18.83
2023-04-07T09:13:04.634Z,21.30
2023-04-07T09:15:13.584Z,20.02
2023-04-07T09:17:18.688Z,19.23
2023-04-07T09:19:23.896Z,17.48
2023-04-07T09:21:29.572Z,16.65
2023-04-07T09:23:37.646Z,17.98
2023-04-07T09:25:42.869Z,19.77
2023-04-07T09:27:59.560Z,20.90
2023-04-07T09:30:18.253Z,17.15
2023-04-07T09:32:41.702Z,19.33
2023-04-07T09:34:47.179Z,16.50
2023-04-07T09:36:52.257Z,17.00
2023-04-07T09:38:57.380Z,17.02
2023-04-07T09:41:10.716Z,16.20
2023-04-07T09:43:20.878Z,16.88
2023-04-07T09:45:36.582Z,18.88
2023-04-07T09:47:42.479Z,16.83
2023-04-07T09:49:55.353Z,16.10
2023-04-07T09:52:05.194Z,17.98
2023-04-07T09:54:10.754Z,18.70
2023-04-07T09:56:17.233Z,17.75
2023-04-07T09:58:23.288Z,16.88
2023-04-07T10:00:31.772Z,16.73
2023-04-07T10:02:37.462Z,16.67
2023-04-07T10:04:44.200Z,14.07
2023-04-07T10:06:50.746Z,17.02
2023-04-07T10:08:55.824Z,15.25
2023-04-07T10:11:02.180Z,17.77
2023-04-07T10:13:09.377Z,15.88
2023-04-07T10:15:17.150Z,15.73
2023-04-07T10:17:26.729Z,15.25
2023-04-07T10:19:35.504Z,16.33
2023-04-07T10:21:46.618Z,17.40
2023-04-07T10:24:02.590Z,18.65
2023-04-07T10:26:10.710Z,18.25
2023-04-07T10:28:17.280Z,16.42
2023-04-07T10:30:28.712Z,16.58
2023-04-07T10:32:49.138Z,17.83
2023-04-07T10:35:08.118Z,17.13
2023-04-07T10:37:19.445Z,16.80
2023-04-07T10:39:32.030Z,18.58
2023-04-07T10:41:39.504Z,18.83
2023-04-07T10:43:45.299Z,19.95
2023-04-07T10:46:00.116Z,19.00
2023-04-07T10:48:18.523Z,18.98
2023-04-07T10:50:25.965Z,16.92
2023-04-07T10:52:31.460Z,16.55
2023-04-07T10:54:37.168Z,17.17
2023-04-07T10:57:18.235Z,18.08
2023-04-07T10:59:28.282Z,19.58
2023-04-07T11:01:47.548Z,17.05
2023-04-07T11:04:05.006Z,16.75
2023-04-07T11:06:12.976Z,15.57
2023-04-07T11:08:46.724Z,12.75
2023-04-07T11:10:53.480Z,14.75
2023-04-07T11:13:05.564Z,14.77
2023-04-07T11:15:24.811Z,14.50
2023-04-07T11:17:29.998Z,11.88
2023-04-07T11:19:54.487Z,15.55
2023-04-07T11:22:29.387Z,10.07
2023-04-07T11:24:37.829Z,11.10
2023-04-07T11:26:44.992Z,11.38
2023-04-07T11:28:51.616Z,11.65
2023-04-07T11:30:58.504Z,10.98
2023-04-07T11:33:04.319Z,9.82
2023-04-07T11:35:13.501Z,10.05
2023-04-07T11:37:29.208Z,10.20
2023-04-07T11:39:38.178Z,11.45
2023-04-07T11:41:57.300Z,10.60
2023-04-07T11:44:24.290Z,10.68
2023-04-07T11:46:29.744Z,13.10
2023-04-07T11:48:36.506Z,10.95
2023-04-07T11:50:45.447Z,10.10
2023-04-07T11:52:51.815Z,10.43
2023-04-07T11:54:59.464Z,11.25
2023-04-07T11:59:10.027Z,10.75
2023-04-07T12:01:15.094Z,11.07
2023-04-07T12:03:20.471Z,10.65
2023-04-07T12:05:26.005Z,10.90
2023-04-07T12:07:34.173Z,10.40
2023-04-07T12:09:39.295Z,9.30
2023-04-07T12:11:53.119Z,9.20
2023-04-07T12:13:59.033Z,10.25
2023-04-07T12:16:04.417Z,8.70
2023-04-07T12:18:09.560Z,11.27
2023-04-07T12:20:15.640Z,12.85
2023-04-07T12:22:21.120Z,11.38
2023-04-07T12:24:28.834Z,9.50
2023-04-07T12:28:38.942Z,9.55
2023-04-07T12:30:44.704Z,10.05
2023-04-07T12:32:49.745Z,10.43
2023-04-07T12:34:55.067Z,11.25
2023-04-07T12:37:00.574Z,9.90
2023-04-07T12:39:05.995Z,9.70
2023-04-07T12:41:13.695Z,11.25
2023-04-07T12:45:23.952Z,8.90
2023-04-07T12:47:28.997Z,11.05
2023-04-07T12:49:34.206Z,10.20
2023-04-07T12:51:40.431Z,10.60
2023-04-07T12:53:45.586Z,10.32
2023-04-07T12:55:51.405Z,10.05
2023-04-07T12:57:59.225Z,11.57
2023-04-07T13:00:09.931Z,10.02
2023-04-07T13:02:18.321Z,9.20
2023-04-07T13:04:24.742Z,7.47
2023-04-07T13:06:30.891Z,8.30
2023-04-07T13:08:36.445Z,6.68
2023-04-07T13:10:41.620Z,7.03
2023-04-07T13:12:46.703Z,7.70
2023-04-07T13:15:00.074Z,8.82
2023-04-07T13:17:05.808Z,8.10
2023-04-07T13:19:11.177Z,6.32
2023-04-07T13:23:26.370Z,5.40
2023-04-07T13:25:31.910Z,6.05
2023-04-07T13:27:37.004Z,6.57
2023-04-07T13:29:42.242Z,6.97
2023-04-07T13:31:51.342Z,4.68
2023-04-07T13:33:56.507Z,3.92
2023-04-07T13:36:01.650Z,4.45
2023-04-07T13:38:07.323Z,2.72
2023-04-07T13:40:13.993Z,4.15
2023-04-07T13:42:21.006Z,3.40
2023-04-07T13:44:26.655Z,4.80
2023-04-07T13:46:31.955Z,3.10
2023-04-07T13:48:39.745Z,3.83
2023-04-07T13:52:49.760Z,2.58
2023-04-07T13:54:54.825Z,3.42
2023-04-07T13:56:59.883Z,2.58
2023-04-07T13:59:05.247Z,1.35
2023-04-07T14:01:10.434Z,2.50
2023-04-07T14:03:15.851Z,1.42
2023-04-07T14:05:23.610Z,1.50
2023-04-07T14:09:33.843Z,1.60
2023-04-07T14:11:39.790Z,2.15
2023-04-07T14:13:44.860Z,2.22
2023-04-07T14:15:50.529Z,1.60
2023-04-07T14:17:55.617Z,3.25
2023-04-07T14:20:01.192Z,2.53
2023-04-07T14:22:08.826Z,3.28
2023-04-07T14:26:18.782Z,2.00
2023-04-07T14:28:24.189Z,3.30
2023-04-07T14:30:30.984Z,2.50
2023-04-07T14:32:36.479Z,3.35
2023-04-07T14:34:41.970Z,2.15
2023-04-07T14:36:56.478Z,2.25
2023-04-07T14:39:04.337Z,2.10
2023-04-07T14:41:10.517Z,3.10
2023-04-07T14:43:15.674Z,2.30
2023-04-07T14:45:20.869Z,3.65
2023-04-07T14:47:26.006Z,2.85
2023-04-07T14:49:31.130Z,2.80
2023-04-07T14:51:37.078Z,2.15
2023-04-07T14:53:43.484Z,2.63
2023-04-07T14:55:51.406Z,4.50
2023-04-07T14:57:56.882Z,2.70
2023-04-07T15:00:01.933Z,4.32
2023-04-07T15:02:07.559Z,3.88
2023-04-07T15:04:13.613Z,6.35
2023-04-07T15:06:19.057Z,5.80
2023-04-07T15:08:24.140Z,4.80
2023-04-07T15:10:30.122Z,4.50
2023-04-07T15:12:38.080Z,5.45
2023-04-07T15:16:50.515Z,12.25
2023-04-07T15:18:55.744Z,6.33
2023-04-07T15:21:00.906Z,5.38
2023-04-07T15:23:06.435Z,4.30
2023-04-07T15:25:11.765Z,5.05
2023-04-07T15:27:17.197Z,5.47
2023-04-07T15:29:24.813Z,4.18
2023-04-07T15:31:30.369Z,3.70
2023-04-07T15:33:35.573Z,4.32
2023-04-07T15:35:40.600Z,6.57
2023-04-07T15:37:46.745Z,4.00
2023-04-07T15:39:53.291Z,4.65
2023-04-07T15:41:58.610Z,4.32
2023-04-07T15:44:04.327Z,5.60
2023-04-07T15:46:12.326Z,4.20
2023-04-07T15:48:17.793Z,5.65
2023-04-07T15:50:23.408Z,5.07
2023-04-07T15:52:29.105Z,5.03
2023-04-07T15:54:34.628Z,4.70
2023-04-07T15:56:39.884Z,4.50
2023-04-07T15:58:46.354Z,8.43
2023-04-07T16:00:51.551Z,6.53
2023-04-07T16:02:59.489Z,6.72
2023-04-07T16:05:05.392Z,6.07
2023-04-07T16:07:10.781Z,6.63
2023-04-07T16:09:16.332Z,4.72
2023-04-07T16:11:21.538Z,6.60
2023-04-07T16:13:27.230Z,6.55
2023-04-07T16:15:40.162Z,5.88
2023-04-07T16:17:50.626Z,5.40
2023-04-07T16:19:58.237Z,7.53
2023-04-07T16:22:06.369Z,5.60
2023-04-07T16:24:11.658Z,6.10
2023-04-07T16:26:16.765Z,5.72
2023-04-07T16:28:22.280Z,6.47
2023-04-07T16:30:27.409Z,8.45
2023-04-07T16:32:32.469Z,7.28
2023-04-07T16:34:38.522Z,6.53
2023-04-07T16:36:47.621Z,5.35
2023-04-07T16:38:53.205Z,8.70
2023-04-07T16:41:04.602Z,6.57
2023-04-07T16:43:10.139Z,7.20
2023-04-07T16:45:15.454Z,6.20
2023-04-07T16:47:20.588Z,6.18
2023-04-07T16:49:25.834Z,5.28
2023-04-07T16:51:32.008Z,8.63
2023-04-07T16:53:40.060Z,6.88
2023-04-07T16:55:45.154Z,5.53
2023-04-07T16:57:50.231Z,6.13
2023-04-07T16:59:55.589Z,6.35
2023-04-07T17:02:00.761Z,6.40
2023-04-07T17:04:06.588Z,6.20
2023-04-07T17:06:12.717Z,5.95
2023-04-07T17:08:18.470Z,5.43
2023-04-07T17:10:27.418Z,7.80
2023-04-07T17:12:33.567Z,6.53
2023-04-07T17:14:43.487Z,6.15
2023-04-07T17:16:48.526Z,5.13
2023-04-07T17:18:53.849Z,5.53
2023-04-07T17:20:59.098Z,8.20
2023-04-07T17:23:04.356Z,7.35
2023-04-07T17:25:11.529Z,5.75
2023-04-07T17:27:19.130Z,7.32
2023-04-07T17:31:35.966Z,7.15
2023-04-07T17:33:41.165Z,7.70
2023-04-07T17:35:51.077Z,5.63
2023-04-07T17:37:56.709Z,7.15
2023-04-07T17:40:04.479Z,7.20
2023-04-07T17:44:20.193Z,7.97
2023-04-07T17:46:27.693Z,8.70
2023-04-07T17:48:33.858Z,7.60
2023-04-07T17:50:40.487Z,8.25
2023-04-07T17:52:45.749Z,8.15
2023-04-07T17:54:51.143Z,9.25
2023-04-07T17:56:56.455Z,8.73
2023-04-07T17:59:01.652Z,7.05
2023-04-07T18:01:11.780Z,9.20
2023-04-07T18:03:17.893Z,8.98
2023-04-07T18:05:23.686Z,9.15
2023-04-07T18:07:29.436Z,9.02
2023-04-07T18:09:34.714Z,7.45
2023-04-07T18:11:40.275Z,7.30
2023-04-07T18:13:45.341Z,10.57
2023-04-07T18:15:51.189Z,10.07
2023-04-07T18:17:58.894Z,9.18
2023-04-07T18:20:04.850Z,10.82
2023-04-07T18:22:10.140Z,7.82
2023-04-07T18:24:15.171Z,10.32
2023-04-07T18:26:20.876Z,8.88
2023-04-07T18:28:25.987Z,9.32
2023-04-07T18:30:31.203Z,8.65
2023-04-07T18:32:36.242Z,8.23
2023-04-07T18:34:45.044Z,9.07
2023-04-07T18:36:51.877Z,11.35
2023-04-07T18:38:57.772Z,13.57
2023-04-07T18:41:03.356Z,9.10
2023-04-07T18:43:08.407Z,14.20
2023-04-07T18:45:14.197Z,12.75
2023-04-07T18:47:19.471Z,8.63
2023-04-07T18:49:25.932Z,9.45
2023-04-07T18:51:35.277Z,9.25
2023-04-07T18:53:40.491Z,10.45
2023-04-07T18:55:45.605Z,12.88
2023-04-07T18:57:50.632Z,9.55
2023-04-07T18:59:55.735Z,10.82
2023-04-07T19:02:01.012Z,10.15
2023-04-07T19:04:06.297Z,13.65
2023-04-07T19:06:12.367Z,11.60
2023-04-07T19:08:20.545Z,10.55
2023-04-07T19:10:26.124Z,11.15
2023-04-07T19:12:31.175Z,13.77
2023-04-07T19:14:36.333Z,12.18
2023-04-07T19:16:42.081Z,13.13
2023-04-07T19:18:47.623Z,11.52
2023-04-07T19:20:52.726Z,13.75
2023-04-07T19:22:57.781Z,9.63
2023-04-07T19:25:05.509Z,14.80
2023-04-07T19:27:12.151Z,11.88
2023-04-07T19:29:17.541Z,12.05
2023-04-07T19:31:22.668Z,13.38
2023-04-07T19:33:27.865Z,11.88
2023-04-07T19:35:34.709Z,10.05
2023-04-07T19:37:40.681Z,11.10
2023-04-07T19:39:55.722Z,11.93
2023-04-07T19:42:16.060Z,10.93
2023-04-07T19:44:24.949Z,10.40
2023-04-07T19:46:30.451Z,8.98
2023-04-07T19:48:37.314Z,9.63
2023-04-07T19:50:43.902Z,12.13
2023-04-07T19:52:50.601Z,12.10
2023-04-07T19:54:56.267Z,8.43
2023-04-07T19:57:02.039Z,9.13
2023-04-07T19:59:10.532Z,10.65
2023-04-07T20:01:19.932Z,9.30
2023-04-07T20:03:25.833Z,9.48
2023-04-07T20:05:30.910Z,9.82
2023-04-07T20:07:36.547Z,11.18
2023-04-07T20:09:42.468Z,9.98
2023-04-07T20:11:48.444Z,9.38
2023-04-07T20:13:53.552Z,9.23
2023-04-07T20:16:02.158Z,9.15
2023-04-07T20:18:07.277Z,10.45
2023-04-07T20:20:14.254Z,10.85
2023-04-07T20:22:19.272Z,6.85
2023-04-07T20:24:24.436Z,10.70
2023-04-07T20:26:29.635Z,9.90
2023-04-07T20:28:35.616Z,8.15
2023-04-07T20:30:41.376Z,9.73
2023-04-07T20:32:49.049Z,8.60
2023-04-07T20:34:54.269Z,9.02
2023-04-07T20:37:00.328Z,9.60
2023-04-07T20:39:05.647Z,11.95
2023-04-07T20:41:15.080Z,11.13
2023-04-07T20:43:22.335Z,14.20
2023-04-07T20:45:27.849Z,10.20
2023-04-07T20:47:36.172Z,9.05
2023-04-07T20:49:44.429Z,12.50
2023-04-07T20:53:57.819Z,11.68
2023-04-07T20:56:03.432Z,8.43
2023-04-07T20:58:08.532Z,10.02
2023-04-07T21:00:14.541Z,12.63
2023-04-07T21:02:19.669Z,10.50
2023-04-07T21:04:25.101Z,11.00
2023-04-07T21:06:32.837Z,11.27
2023-04-07T21:08:37.909Z,8.38
2023-04-07T21:10:42.931Z,12.27
2023-04-07T21:12:48.341Z,9.93
2023-04-07T21:14:55.889Z,10.25
2023-04-07T21:17:01.541Z,14.27
2023-04-07T21:19:06.731Z,13.05
2023-04-07T21:21:12.470Z,12.73
2023-04-07T21:23:20.240Z,85.88
2023-04-07T21:25:25.586Z,10.30
2023-04-07T21:27:32.484Z,13.65
2023-04-07T21:29:37.557Z,12.23
2023-04-07T21:31:43.100Z,7.75
2023-04-07T21:33:48.242Z,6.85
2023-04-07T21:35:55.270Z,7.13
2023-04-07T21:38:00.339Z,11.75
2023-04-07T21:40:09.779Z,11.00
2023-04-07T21:42:17.888Z,14.27
2023-04-07T21:44:22.990Z,10.55
2023-04-07T21:46:29.070Z,11.52
2023-04-07T21:48:34.974Z,13.82
2023-04-07T21:50:40.472Z,13.48
2023-04-07T21:52:45.929Z,12.70
2023-04-07T21:54:50.977Z,12.38
2023-04-07T21:56:59.793Z,12.48
2023-04-07T21:59:05.105Z,14.18
2023-04-07T22:01:10.517Z,13.70
2023-04-07T22:03:16.962Z,10.00
2023-04-07T22:05:23.055Z,12.27
2023-04-07T22:07:28.225Z,13.43
2023-04-07T22:09:33.642Z,16.40
2023-04-07T22:11:38.692Z,18.58
2023-04-07T22:13:46.605Z,20.85
2023-04-07T22:17:59.238Z,22.02
2023-04-07T22:20:05.257Z,20.48
2023-04-07T22:22:10.599Z,19.75
2023-04-07T22:24:15.749Z,24.52
2023-04-07T22:26:20.947Z,20.13
2023-04-07T22:28:25.966Z,22.73
2023-04-07T22:30:33.600Z,24.65
2023-04-07T22:32:41.667Z,19.70
2023-04-07T22:34:47.616Z,24.15
2023-04-07T22:36:52.695Z,18.08
2023-04-07T22:38:57.720Z,13.45
2023-04-07T22:41:02.741Z,12.30
2023-04-07T22:43:07.791Z,9.45
2023-04-07T22:45:13.647Z,13.35
2023-04-07T22:47:21.455Z,16.83
2023-04-07T22:49:26.862Z,15.30
2023-04-07T22:51:32.059Z,40.33
2023-04-07T22:53:37.154Z,75.15
2023-04-07T22:55:42.214Z,57.60
2023-04-07T22:57:47.389Z,11.70
2023-04-07T22:59:52.709Z,72.93
2023-04-07T23:01:58.025Z,13.88
2023-04-07T23:04:06.020Z,9.10
2023-04-07T23:08:16.384Z,7.15
2023-04-07T23:10:21.981Z,9.68
2023-04-07T23:12:27.417Z,9.02
2023-04-07T23:14:32.482Z,8.90
2023-04-07T23:16:37.920Z,9.70
2023-04-07T23:18:43.357Z,9.82
2023-04-07T23:20:55.567Z,10.20
2023-04-07T23:23:00.801Z,9.35
2023-04-07T23:25:05.937Z,12.35
2023-04-07T23:27:13.786Z,9.70
2023-04-07T23:29:18.828Z,10.70
2023-04-07T23:31:24.038Z,10.02
2023-04-07T23:33:29.128Z,10.93
2023-04-07T23:35:34.405Z,11.35
2023-04-07T23:37:42.438Z,9.18
2023-04-07T23:39:47.479Z,12.68
2023-04-07T23:41:52.747Z,9.18
2023-04-07T23:43:58.425Z,10.52
2023-04-07T23:46:03.631Z,8.90
2023-04-07T23:48:09.703Z,11.05
2023-04-07T23:50:17.291Z,14.68
2023-04-07T23:52:23.638Z,18.20
2023-04-07T23:54:31.352Z,15.02
2023-04-07T23:56:37.385Z,13.60
2023-04-07T23:58:44.584Z,12.57
